sensor_id;sensor_type;location;lat;lon;timestamp;P1;P2;P0
69224;PMS1003;56333;51.306;17.056;2023-02-03T00:00:07;9.00;4.30;
69224;PMS1003;56333;51.306;17.056;2023-02-03T00:01:57;10.30;4.40;
69224;PMS1003;56333;51.306;17.056;2023-02-03T00:03:26;9.40;4.10;
69224;PMS1003;56333;51.306;17.056;2023-02-03T00:04:55;9.80;4.60;
69224;PMS1003;56333;51.306;17.056;2023-02-03T00:06:23;9.30;4.10;
69224;PMS1003;56333;51.306;17.056;2023-02-03T00:07:52;8.80;4.10;
69224;PMS1003;56333;51.306;17.056;2023-02-03T00:09:21;9.60;4.90;
69224;PMS1003;56333;51.306;17.056;2023-02-03T00:10:50;10.80;4.90;
69224;PMS1003;56333;51.306;17.056;2023-02-03T00:12:20;9.90;4.80;
69224;PMS1003;56333;51.306;17.056;2023-02-03T00:13:48;13.40;5.30;
69224;PMS1003;56333;51.306;17.056;2023-02-03T00:15:18;11.20;5.70;
69224;PMS1003;56333;51.306;17.056;2023-02-03T00:16:48;11.80;5.60;
69224;PMS1003;56333;51.306;17.056;2023-02-03T00:18:17;12.20;5.50;
69224;PMS1003;56333;51.306;17.056;2023-02-03T00:19:46;11.30;5.70;
69224;PMS1003;56333;51.306;17.056;2023-02-03T00:21:15;13.40;6.10;
69224;PMS1003;56333;51.306;17.056;2023-02-03T00:22:45;11.70;6.10;
69224;PMS1003;56333;51.306;17.056;2023-02-03T00:24:14;11.80;6.10;
69224;PMS1003;56333;51.306;17.056;2023-02-03T00:25:45;11.70;5.70;
69224;PMS1003;56333;51.306;17.056;2023-02-03T00:27:14;12.00;6.10;
69224;PMS1003;56333;51.306;17.056;2023-02-03T00:28:43;10.50;5.60;
69224;PMS1003;56333;51.306;17.056;2023-02-03T00:30:14;12.10;5.60;
69224;PMS1003;56333;51.306;17.056;2023-02-03T00:31:43;13.20;6.30;
69224;PMS1003;56333;51.306;17.056;2023-02-03T00:33:12;14.80;6.50;
69224;PMS1003;56333;51.306;17.056;2023-02-03T00:34:41;14.70;6.70;
69224;PMS1003;56333;51.306;17.056;2023-02-03T00:36:11;15.60;6.60;
69224;PMS1003;56333;51.306;17.056;2023-02-03T00:37:40;14.30;6.60;
69224;PMS1003;56333;51.306;17.056;2023-02-03T00:39:09;12.50;6.30;
69224;PMS1003;56333;51.306;17.056;2023-02-03T00:40:38;13.20;6.20;
69224;PMS1003;56333;51.306;17.056;2023-02-03T00:42:07;14.20;6.70;
69224;PMS1003;56333;51.306;17.056;2023-02-03T00:43:36;14.90;6.60;
69224;PMS1003;56333;51.306;17.056;2023-02-03T00:45:06;12.70;5.90;
69224;PMS1003;56333;51.306;17.056;2023-02-03T00:46:35;11.70;5.80;
69224;PMS1003;56333;51.306;17.056;2023-02-03T00:48:04;10.10;5.50;
69224;PMS1003;56333;51.306;17.056;2023-02-03T00:49:34;12.90;6.00;
69224;PMS1003;56333;51.306;17.056;2023-02-03T00:51:03;12.60;6.10;
69224;PMS1003;56333;51.306;17.056;2023-02-03T00:52:32;11.30;5.90;
69224;PMS1003;56333;51.306;17.056;2023-02-03T00:54:01;12.90;5.80;
69224;PMS1003;56333;51.306;17.056;2023-02-03T00:55:29;10.50;5.90;
69224;PMS1003;56333;51.306;17.056;2023-02-03T00:56:58;10.40;5.40;
69224;PMS1003;56333;51.306;17.056;2023-02-03T00:58:27;11.30;5.70;
69224;PMS1003;56333;51.306;17.056;2023-02-03T00:59:56;11.30;5.40;
69224;PMS1003;56333;51.306;17.056;2023-02-03T01:01:24;12.40;5.80;
69224;PMS1003;56333;51.306;17.056;2023-02-03T01:02:53;12.40;5.80;
69224;PMS1003;56333;51.306;17.056;2023-02-03T01:04:22;10.50;6.00;
69224;PMS1003;56333;51.306;17.056;2023-02-03T01:05:51;11.70;6.10;
69224;PMS1003;56333;51.306;17.056;2023-02-03T01:07:19;11.90;5.90;
69224;PMS1003;56333;51.306;17.056;2023-02-03T01:08:49;11.20;5.30;
69224;PMS1003;56333;51.306;17.056;2023-02-03T01:10:19;10.60;5.40;
69224;PMS1003;56333;51.306;17.056;2023-02-03T01:11:49;10.30;5.30;
69224;PMS1003;56333;51.306;17.056;2023-02-03T01:13:18;11.10;5.30;
69224;PMS1003;56333;51.306;17.056;2023-02-03T01:14:47;9.70;5.20;
69224;PMS1003;56333;51.306;17.056;2023-02-03T01:16:18;13.00;6.00;
69224;PMS1003;56333;51.306;17.056;2023-02-03T01:17:47;10.70;5.50;
69224;PMS1003;56333;51.306;17.056;2023-02-03T01:19:17;11.00;5.40;
69224;PMS1003;56333;51.306;17.056;2023-02-03T01:20:46;9.30;5.30;
69224;PMS1003;56333;51.306;17.056;2023-02-03T01:22:15;10.40;5.50;
69224;PMS1003;56333;51.306;17.056;2023-02-03T01:23:44;11.10;5.70;
69224;PMS1003;56333;51.306;17.056;2023-02-03T01:25:13;11.30;5.90;
69224;PMS1003;56333;51.306;17.056;2023-02-03T01:26:42;11.80;6.00;
69224;PMS1003;56333;51.306;17.056;2023-02-03T01:28:11;11.20;5.80;
69224;PMS1003;56333;51.306;17.056;2023-02-03T01:29:40;12.50;6.20;
69224;PMS1003;56333;51.306;17.056;2023-02-03T01:31:16;12.40;5.90;
69224;PMS1003;56333;51.306;17.056;2023-02-03T01:32:46;12.80;6.60;
69224;PMS1003;56333;51.306;17.056;2023-02-03T01:34:15;13.70;6.50;
69224;PMS1003;56333;51.306;17.056;2023-02-03T01:35:44;13.50;6.40;
69224;PMS1003;56333;51.306;17.056;2023-02-03T01:37:13;13.90;6.90;
69224;PMS1003;56333;51.306;17.056;2023-02-03T01:38:42;17.80;6.70;
69224;PMS1003;56333;51.306;17.056;2023-02-03T01:40:13;13.10;6.70;
69224;PMS1003;56333;51.306;17.056;2023-02-03T01:41:42;14.40;6.50;
69224;PMS1003;56333;51.306;17.056;2023-02-03T01:44:58;14.20;6.70;
69224;PMS1003;56333;51.306;17.056;2023-02-03T01:46:32;14.10;6.30;
69224;PMS1003;56333;51.306;17.056;2023-02-03T01:48:04;13.30;6.70;
69224;PMS1003;56333;51.306;17.056;2023-02-03T01:49:35;14.10;6.50;
69224;PMS1003;56333;51.306;17.056;2023-02-03T01:51:05;12.00;6.30;
69224;PMS1003;56333;51.306;17.056;2023-02-03T01:52:34;13.80;6.60;
69224;PMS1003;56333;51.306;17.056;2023-02-03T01:54:05;12.80;6.50;
69224;PMS1003;56333;51.306;17.056;2023-02-03T01:55:37;13.70;7.30;
69224;PMS1003;56333;51.306;17.056;2023-02-03T01:57:12;15.10;7.30;
69224;PMS1003;56333;51.306;17.056;2023-02-03T01:58:45;16.10;7.60;
69224;PMS1003;56333;51.306;17.056;2023-02-03T02:00:17;16.00;7.60;
69224;PMS1003;56333;51.306;17.056;2023-02-03T02:01:47;17.30;7.90;
69224;PMS1003;56333;51.306;17.056;2023-02-03T02:03:17;14.00;7.40;
69224;PMS1003;56333;51.306;17.056;2023-02-03T02:04:54;15.80;7.70;
69224;PMS1003;56333;51.306;17.056;2023-02-03T02:06:26;14.80;7.60;
69224;PMS1003;56333;51.306;17.056;2023-02-03T02:07:55;15.40;7.50;
69224;PMS1003;56333;51.306;17.056;2023-02-03T02:09:27;14.90;7.20;
69224;PMS1003;56333;51.306;17.056;2023-02-03T02:10:56;14.80;6.70;
69224;PMS1003;56333;51.306;17.056;2023-02-03T02:12:25;13.40;6.40;
69224;PMS1003;56333;51.306;17.056;2023-02-03T02:13:59;14.00;7.00;
69224;PMS1003;56333;51.306;17.056;2023-02-03T02:15:43;15.40;7.10;
69224;PMS1003;56333;51.306;17.056;2023-02-03T02:17:34;16.20;7.40;
69224;PMS1003;56333;51.306;17.056;2023-02-03T02:19:40;15.30;7.50;
69224;PMS1003;56333;51.306;17.056;2023-02-03T02:21:54;17.60;8.10;
69224;PMS1003;56333;51.306;17.056;2023-02-03T02:24:26;17.90;8.70;
69224;PMS1003;56333;51.306;17.056;2023-02-03T02:28:57;17.70;9.00;
69224;PMS1003;56333;51.306;17.056;2023-02-03T02:31:30;18.40;8.80;
69224;PMS1003;56333;51.306;17.056;2023-02-03T02:33:20;19.30;9.40;
69224;PMS1003;56333;51.306;17.056;2023-02-03T02:35:03;17.70;8.90;
69224;PMS1003;56333;51.306;17.056;2023-02-03T02:36:45;22.10;9.00;
69224;PMS1003;56333;51.306;17.056;2023-02-03T02:38:36;18.00;9.30;
69224;PMS1003;56333;51.306;17.056;2023-02-03T02:40:18;17.20;8.30;
69224;PMS1003;56333;51.306;17.056;2023-02-03T02:41:54;16.30;8.20;
69224;PMS1003;56333;51.306;17.056;2023-02-03T02:43:32;18.00;9.00;
69224;PMS1003;56333;51.306;17.056;2023-02-03T02:45:14;18.80;9.50;
69224;PMS1003;56333;51.306;17.056;2023-02-03T02:46:48;20.70;9.50;
69224;PMS1003;56333;51.306;17.056;2023-02-03T02:48:28;19.40;9.80;
69224;PMS1003;56333;51.306;17.056;2023-02-03T02:50:06;20.00;9.40;
69224;PMS1003;56333;51.306;17.056;2023-02-03T02:51:39;18.80;10.30;
69224;PMS1003;56333;51.306;17.056;2023-02-03T02:53:10;19.10;10.20;
69224;PMS1003;56333;51.306;17.056;2023-02-03T02:54:44;19.20;10.20;
69224;PMS1003;56333;51.306;17.056;2023-02-03T02:56:17;21.10;11.00;
69224;PMS1003;56333;51.306;17.056;2023-02-03T02:57:47;18.80;10.90;
69224;PMS1003;56333;51.306;17.056;2023-02-03T02:59:17;22.20;11.10;
69224;PMS1003;56333;51.306;17.056;2023-02-03T03:00:46;19.60;10.70;
69224;PMS1003;56333;51.306;17.056;2023-02-03T03:02:15;21.30;10.40;
69224;PMS1003;56333;51.306;17.056;2023-02-03T03:03:44;18.50;9.70;
69224;PMS1003;56333;51.306;17.056;2023-02-03T03:05:13;19.70;9.90;
69224;PMS1003;56333;51.306;17.056;2023-02-03T03:06:47;16.40;8.90;
69224;PMS1003;56333;51.306;17.056;2023-02-03T03:08:23;22.60;9.40;
69224;PMS1003;56333;51.306;17.056;2023-02-03T03:09:59;17.50;8.90;
69224;PMS1003;56333;51.306;17.056;2023-02-03T03:11:32;18.10;8.70;
69224;PMS1003;56333;51.306;17.056;2023-02-03T03:13:07;17.80;8.00;
69224;PMS1003;56333;51.306;17.056;2023-02-03T03:14:43;16.40;8.10;
69224;PMS1003;56333;51.306;17.056;2023-02-03T03:16:15;14.30;8.30;
69224;PMS1003;56333;51.306;17.056;2023-02-03T03:17:49;18.10;9.20;
69224;PMS1003;56333;51.306;17.056;2023-02-03T03:19:22;15.50;8.50;
69224;PMS1003;56333;51.306;17.056;2023-02-03T03:20:55;17.50;8.70;
69224;PMS1003;56333;51.306;17.056;2023-02-03T03:22:35;16.30;8.60;
69224;PMS1003;56333;51.306;17.056;2023-02-03T03:24:11;19.10;8.70;
69224;PMS1003;56333;51.306;17.056;2023-02-03T03:25:45;16.90;8.20;
69224;PMS1003;56333;51.306;17.056;2023-02-03T03:27:19;17.20;8.20;
69224;PMS1003;56333;51.306;17.056;2023-02-03T03:28:53;14.10;7.70;
69224;PMS1003;56333;51.306;17.056;2023-02-03T03:30:31;15.50;7.90;
69224;PMS1003;56333;51.306;17.056;2023-02-03T03:32:03;16.70;7.60;
69224;PMS1003;56333;51.306;17.056;2023-02-03T03:33:32;15.20;7.20;
69224;PMS1003;56333;51.306;17.056;2023-02-03T03:35:02;14.00;7.20;
69224;PMS1003;56333;51.306;17.056;2023-02-03T03:36:39;13.80;7.60;
69224;PMS1003;56333;51.306;17.056;2023-02-03T03:38:14;14.00;7.50;
69224;PMS1003;56333;51.306;17.056;2023-02-03T03:39:50;14.40;7.50;
69224;PMS1003;56333;51.306;17.056;2023-02-03T03:41:28;15.30;8.20;
69224;PMS1003;56333;51.306;17.056;2023-02-03T03:43:04;17.90;8.60;
69224;PMS1003;56333;51.306;17.056;2023-02-03T03:44:42;19.00;8.40;
69224;PMS1003;56333;51.306;17.056;2023-02-03T03:46:22;14.80;7.70;
69224;PMS1003;56333;51.306;17.056;2023-02-03T03:47:58;15.90;7.70;
69224;PMS1003;56333;51.306;17.056;2023-02-03T03:49:30;16.00;8.00;
69224;PMS1003;56333;51.306;17.056;2023-02-03T03:51:05;15.20;7.60;
69224;PMS1003;56333;51.306;17.056;2023-02-03T03:52:38;13.80;7.40;
69224;PMS1003;56333;51.306;17.056;2023-02-03T03:54:10;15.90;8.10;
69224;PMS1003;56333;51.306;17.056;2023-02-03T03:55:41;17.10;7.90;
69224;PMS1003;56333;51.306;17.056;2023-02-03T03:57:17;15.50;7.50;
69224;PMS1003;56333;51.306;17.056;2023-02-03T03:58:49;17.20;7.90;
69224;PMS1003;56333;51.306;17.056;2023-02-03T04:00:21;14.30;7.60;
69224;PMS1003;56333;51.306;17.056;2023-02-03T04:01:52;15.10;7.60;
69224;PMS1003;56333;51.306;17.056;2023-02-03T04:03:24;15.10;7.80;
69224;PMS1003;56333;51.306;17.056;2023-02-03T04:04:55;17.50;8.10;
69224;PMS1003;56333;51.306;17.056;2023-02-03T04:06:26;17.80;7.80;
69224;PMS1003;56333;51.306;17.056;2023-02-03T04:07:55;15.90;7.80;
69224;PMS1003;56333;51.306;17.056;2023-02-03T04:09:24;14.90;7.20;
69224;PMS1003;56333;51.306;17.056;2023-02-03T04:10:53;15.80;6.90;
69224;PMS1003;56333;51.306;17.056;2023-02-03T04:12:24;14.10;7.10;
69224;PMS1003;56333;51.306;17.056;2023-02-03T04:13:53;13.40;6.50;
69224;PMS1003;56333;51.306;17.056;2023-02-03T04:15:21;12.50;6.70;
69224;PMS1003;56333;51.306;17.056;2023-02-03T04:16:51;14.20;7.10;
69224;PMS1003;56333;51.306;17.056;2023-02-03T04:18:20;11.40;6.70;
69224;PMS1003;56333;51.306;17.056;2023-02-03T04:19:49;12.80;6.70;
69224;PMS1003;56333;51.306;17.056;2023-02-03T04:21:18;12.80;6.80;
69224;PMS1003;56333;51.306;17.056;2023-02-03T04:22:47;13.20;6.70;
69224;PMS1003;56333;51.306;17.056;2023-02-03T04:24:16;12.70;6.80;
69224;PMS1003;56333;51.306;17.056;2023-02-03T04:25:45;12.10;6.60;
69224;PMS1003;56333;51.306;17.056;2023-02-03T04:27:13;13.20;6.70;
69224;PMS1003;56333;51.306;17.056;2023-02-03T04:28:43;12.60;6.70;
69224;PMS1003;56333;51.306;17.056;2023-02-03T04:31:43;16.80;8.10;
69224;PMS1003;56333;51.306;17.056;2023-02-03T04:33:12;14.60;8.10;
69224;PMS1003;56333;51.306;17.056;2023-02-03T04:34:41;16.30;7.10;
69224;PMS1003;56333;51.306;17.056;2023-02-03T04:36:11;14.70;7.00;
69224;PMS1003;56333;51.306;17.056;2023-02-03T04:37:41;16.10;7.90;
69224;PMS1003;56333;51.306;17.056;2023-02-03T04:39:10;13.10;6.70;
69224;PMS1003;56333;51.306;17.056;2023-02-03T04:40:39;12.50;7.00;
69224;PMS1003;56333;51.306;17.056;2023-02-03T04:42:10;14.00;7.50;
69224;PMS1003;56333;51.306;17.056;2023-02-03T04:43:39;11.90;7.40;
69224;PMS1003;56333;51.306;17.056;2023-02-03T04:45:10;16.00;7.70;
69224;PMS1003;56333;51.306;17.056;2023-02-03T04:46:39;14.20;7.40;
69224;PMS1003;56333;51.306;17.056;2023-02-03T04:48:09;15.00;7.80;
69224;PMS1003;56333;51.306;17.056;2023-02-03T04:49:39;15.10;7.50;
69224;PMS1003;56333;51.306;17.056;2023-02-03T04:51:09;12.70;7.50;
69224;PMS1003;56333;51.306;17.056;2023-02-03T04:52:38;14.00;8.10;
69224;PMS1003;56333;51.306;17.056;2023-02-03T04:54:07;13.40;7.50;
69224;PMS1003;56333;51.306;17.056;2023-02-03T04:55:36;14.00;8.10;
69224;PMS1003;56333;51.306;17.056;2023-02-03T04:57:05;13.20;7.90;
69224;PMS1003;56333;51.306;17.056;2023-02-03T04:58:34;16.00;8.30;
69224;PMS1003;56333;51.306;17.056;2023-02-03T05:00:05;16.10;8.50;
69224;PMS1003;56333;51.306;17.056;2023-02-03T05:01:36;16.20;8.40;
69224;PMS1003;56333;51.306;17.056;2023-02-03T05:03:06;16.10;8.30;
69224;PMS1003;56333;51.306;17.056;2023-02-03T05:04:35;15.80;8.10;
69224;PMS1003;56333;51.306;17.056;2023-02-03T05:06:04;16.60;8.90;
69224;PMS1003;56333;51.306;17.056;2023-02-03T05:07:34;15.00;8.00;
69224;PMS1003;56333;51.306;17.056;2023-02-03T05:09:04;16.30;7.80;
69224;PMS1003;56333;51.306;17.056;2023-02-03T05:10:32;16.40;8.10;
69224;PMS1003;56333;51.306;17.056;2023-02-03T05:12:02;21.70;10.70;
69224;PMS1003;56333;51.306;17.056;2023-02-03T05:13:31;14.00;8.00;
69224;PMS1003;56333;51.306;17.056;2023-02-03T05:15:01;15.50;8.00;
69224;PMS1003;56333;51.306;17.056;2023-02-03T05:16:30;16.20;8.00;
69224;PMS1003;56333;51.306;17.056;2023-02-03T05:17:59;16.60;7.80;
69224;PMS1003;56333;51.306;17.056;2023-02-03T05:19:29;15.30;7.80;
69224;PMS1003;56333;51.306;17.056;2023-02-03T05:20:57;15.90;8.00;
69224;PMS1003;56333;51.306;17.056;2023-02-03T05:22:26;17.40;7.70;
69224;PMS1003;56333;51.306;17.056;2023-02-03T05:23:55;15.90;7.70;
69224;PMS1003;56333;51.306;17.056;2023-02-03T05:25:25;16.70;7.40;
69224;PMS1003;56333;51.306;17.056;2023-02-03T05:26:54;13.00;7.50;
69224;PMS1003;56333;51.306;17.056;2023-02-03T05:28:23;16.20;7.70;
69224;PMS1003;56333;51.306;17.056;2023-02-03T05:29:52;15.50;7.50;
69224;PMS1003;56333;51.306;17.056;2023-02-03T05:31:21;16.40;7.60;
69224;PMS1003;56333;51.306;17.056;2023-02-03T05:32:51;15.00;6.90;
69224;PMS1003;56333;51.306;17.056;2023-02-03T05:34:21;14.50;6.80;
69224;PMS1003;56333;51.306;17.056;2023-02-03T05:35:51;13.00;7.20;
69224;PMS1003;56333;51.306;17.056;2023-02-03T05:37:20;14.20;7.20;
69224;PMS1003;56333;51.306;17.056;2023-02-03T05:38:50;15.10;7.60;
69224;PMS1003;56333;51.306;17.056;2023-02-03T05:40:20;15.20;7.90;
69224;PMS1003;56333;51.306;17.056;2023-02-03T05:42:09;17.10;8.30;
69224;PMS1003;56333;51.306;17.056;2023-02-03T05:43:38;17.30;9.10;
69224;PMS1003;56333;51.306;17.056;2023-02-03T05:45:09;15.40;8.80;
69224;PMS1003;56333;51.306;17.056;2023-02-03T05:46:38;15.80;7.70;
69224;PMS1003;56333;51.306;17.056;2023-02-03T05:48:08;14.30;7.10;
69224;PMS1003;56333;51.306;17.056;2023-02-03T05:49:37;12.70;6.70;
69224;PMS1003;56333;51.306;17.056;2023-02-03T05:51:07;12.00;6.60;
69224;PMS1003;56333;51.306;17.056;2023-02-03T05:52:36;13.00;6.60;
69224;PMS1003;56333;51.306;17.056;2023-02-03T05:54:06;13.10;6.50;
69224;PMS1003;56333;51.306;17.056;2023-02-03T05:55:36;13.30;6.60;
69224;PMS1003;56333;51.306;17.056;2023-02-03T05:57:06;13.50;6.90;
69224;PMS1003;56333;51.306;17.056;2023-02-03T05:58:34;12.80;6.90;
69224;PMS1003;56333;51.306;17.056;2023-02-03T06:00:03;13.70;7.20;
69224;PMS1003;56333;51.306;17.056;2023-02-03T06:01:37;14.00;6.40;
69224;PMS1003;56333;51.306;17.056;2023-02-03T06:03:08;13.80;6.70;
69224;PMS1003;56333;51.306;17.056;2023-02-03T06:04:37;13.10;7.20;
69224;PMS1003;56333;51.306;17.056;2023-02-03T06:06:06;12.40;6.80;
69224;PMS1003;56333;51.306;17.056;2023-02-03T06:07:38;14.50;7.60;
69224;PMS1003;56333;51.306;17.056;2023-02-03T06:09:08;13.50;7.00;
69224;PMS1003;56333;51.306;17.056;2023-02-03T06:10:37;12.60;7.00;
69224;PMS1003;56333;51.306;17.056;2023-02-03T06:12:09;13.60;7.80;
69224;PMS1003;56333;51.306;17.056;2023-02-03T06:13:37;12.40;7.10;
69224;PMS1003;56333;51.306;17.056;2023-02-03T06:15:10;13.10;7.00;
69224;PMS1003;56333;51.306;17.056;2023-02-03T06:16:39;14.70;7.70;
69224;PMS1003;56333;51.306;17.056;2023-02-03T06:18:09;13.00;8.00;
69224;PMS1003;56333;51.306;17.056;2023-02-03T06:19:38;15.60;8.70;
69224;PMS1003;56333;51.306;17.056;2023-02-03T06:21:07;18.70;9.20;
69224;PMS1003;56333;51.306;17.056;2023-02-03T06:22:43;17.40;9.60;
69224;PMS1003;56333;51.306;17.056;2023-02-03T06:24:13;18.70;9.60;
69224;PMS1003;56333;51.306;17.056;2023-02-03T06:25:42;17.30;9.30;
69224;PMS1003;56333;51.306;17.056;2023-02-03T06:27:11;16.70;9.50;
69224;PMS1003;56333;51.306;17.056;2023-02-03T06:28:40;16.70;9.60;
69224;PMS1003;56333;51.306;17.056;2023-02-03T06:30:14;17.10;9.10;
69224;PMS1003;56333;51.306;17.056;2023-02-03T06:31:44;15.50;8.40;
69224;PMS1003;56333;51.306;17.056;2023-02-03T06:33:15;18.80;9.10;
69224;PMS1003;56333;51.306;17.056;2023-02-03T06:34:46;19.40;9.70;
69224;PMS1003;56333;51.306;17.056;2023-02-03T06:36:15;15.10;8.60;
69224;PMS1003;56333;51.306;17.056;2023-02-03T06:37:45;17.30;9.00;
69224;PMS1003;56333;51.306;17.056;2023-02-03T06:39:13;15.90;9.00;
69224;PMS1003;56333;51.306;17.056;2023-02-03T06:42:15;16.60;10.10;
69224;PMS1003;56333;51.306;17.056;2023-02-03T06:43:44;18.90;10.30;
69224;PMS1003;56333;51.306;17.056;2023-02-03T06:45:14;15.60;9.90;
69224;PMS1003;56333;51.306;17.056;2023-02-03T06:46:43;16.60;10.10;
69224;PMS1003;56333;51.306;17.056;2023-02-03T06:48:14;14.70;9.10;
69224;PMS1003;56333;51.306;17.056;2023-02-03T06:49:43;15.50;9.30;
69224;PMS1003;56333;51.306;17.056;2023-02-03T06:51:11;15.90;9.10;
69224;PMS1003;56333;51.306;17.056;2023-02-03T06:52:40;17.80;10.20;
69224;PMS1003;56333;51.306;17.056;2023-02-03T06:54:10;34.40;20.30;
69224;PMS1003;56333;51.306;17.056;2023-02-03T06:55:40;22.60;13.20;
69224;PMS1003;56333;51.306;17.056;2023-02-03T06:57:08;21.30;12.20;
69224;PMS1003;56333;51.306;17.056;2023-02-03T06:58:37;23.00;14.30;
69224;PMS1003;56333;51.306;17.056;2023-02-03T07:00:11;23.50;14.60;
69224;PMS1003;56333;51.306;17.056;2023-02-03T07:01:42;28.20;16.40;
69224;PMS1003;56333;51.306;17.056;2023-02-03T07:03:10;26.10;16.20;
69224;PMS1003;56333;51.306;17.056;2023-02-03T07:04:39;25.80;15.00;
69224;PMS1003;56333;51.306;17.056;2023-02-03T07:06:10;24.60;14.00;
69224;PMS1003;56333;51.306;17.056;2023-02-03T07:07:39;19.00;11.40;
69224;PMS1003;56333;51.306;17.056;2023-02-03T07:09:08;18.60;11.50;
69224;PMS1003;56333;51.306;17.056;2023-02-03T07:10:37;18.00;10.90;
69224;PMS1003;56333;51.306;17.056;2023-02-03T07:12:07;16.00;9.60;
69224;PMS1003;56333;51.306;17.056;2023-02-03T07:13:36;14.60;9.40;
69224;PMS1003;56333;51.306;17.056;2023-02-03T07:15:06;15.00;9.30;
69224;PMS1003;56333;51.306;17.056;2023-02-03T07:16:36;17.50;10.10;
69224;PMS1003;56333;51.306;17.056;2023-02-03T07:18:05;15.60;9.80;
69224;PMS1003;56333;51.306;17.056;2023-02-03T07:19:34;15.60;10.00;
69224;PMS1003;56333;51.306;17.056;2023-02-03T07:21:07;14.50;9.10;
69224;PMS1003;56333;51.306;17.056;2023-02-03T07:22:36;15.10;8.70;
69224;PMS1003;56333;51.306;17.056;2023-02-03T07:24:07;13.20;8.00;
69224;PMS1003;56333;51.306;17.056;2023-02-03T07:25:37;11.00;6.80;
69224;PMS1003;56333;51.306;17.056;2023-02-03T07:27:06;10.00;6.50;
69224;PMS1003;56333;51.306;17.056;2023-02-03T07:28:35;10.70;6.60;
69224;PMS1003;56333;51.306;17.056;2023-02-03T07:30:06;11.00;7.00;
69224;PMS1003;56333;51.306;17.056;2023-02-03T07:31:37;11.50;7.50;
69224;PMS1003;56333;51.306;17.056;2023-02-03T07:33:07;13.60;8.60;
69224;PMS1003;56333;51.306;17.056;2023-02-03T07:34:38;13.40;8.90;
69224;PMS1003;56333;51.306;17.056;2023-02-03T07:36:10;14.10;9.20;
69224;PMS1003;56333;51.306;17.056;2023-02-03T07:37:40;12.00;8.00;
69224;PMS1003;56333;51.306;17.056;2023-02-03T07:39:09;12.80;7.60;
69224;PMS1003;56333;51.306;17.056;2023-02-03T07:40:38;11.70;7.00;
69224;PMS1003;56333;51.306;17.056;2023-02-03T07:42:07;10.10;6.70;
69224;PMS1003;56333;51.306;17.056;2023-02-03T07:43:37;10.20;6.50;
69224;PMS1003;56333;51.306;17.056;2023-02-03T07:45:08;10.70;6.90;
69224;PMS1003;56333;51.306;17.056;2023-02-03T07:46:37;11.90;8.10;
69224;PMS1003;56333;51.306;17.056;2023-02-03T07:48:09;12.30;8.10;
69224;PMS1003;56333;51.306;17.056;2023-02-03T07:49:39;14.50;9.50;
69224;PMS1003;56333;51.306;17.056;2023-02-03T07:51:12;14.70;9.50;
69224;PMS1003;56333;51.306;17.056;2023-02-03T07:52:42;19.10;9.90;
69224;PMS1003;56333;51.306;17.056;2023-02-03T07:54:13;21.20;12.40;
69224;PMS1003;56333;51.306;17.056;2023-02-03T07:55:43;15.40;8.40;
69224;PMS1003;56333;51.306;17.056;2023-02-03T07:57:13;18.20;8.60;
69224;PMS1003;56333;51.306;17.056;2023-02-03T07:58:42;8.80;5.30;
69224;PMS1003;56333;51.306;17.056;2023-02-03T08:00:16;6.50;4.40;
69224;PMS1003;56333;51.306;17.056;2023-02-03T08:01:46;6.40;4.20;
69224;PMS1003;56333;51.306;17.056;2023-02-03T08:03:16;7.40;4.40;
69224;PMS1003;56333;51.306;17.056;2023-02-03T08:04:46;10.00;5.80;
69224;PMS1003;56333;51.306;17.056;2023-02-03T08:06:16;7.50;5.10;
69224;PMS1003;56333;51.306;17.056;2023-02-03T08:07:46;6.80;4.40;
69224;PMS1003;56333;51.306;17.056;2023-02-03T08:09:15;6.80;4.70;
69224;PMS1003;56333;51.306;17.056;2023-02-03T08:10:44;9.00;5.30;
69224;PMS1003;56333;51.306;17.056;2023-02-03T08:12:14;6.90;4.80;
69224;PMS1003;56333;51.306;17.056;2023-02-03T08:13:43;8.30;4.70;
69224;PMS1003;56333;51.306;17.056;2023-02-03T08:15:14;8.40;5.10;
69224;PMS1003;56333;51.306;17.056;2023-02-03T08:16:45;6.90;4.70;
69224;PMS1003;56333;51.306;17.056;2023-02-03T08:18:14;6.90;4.40;
69224;PMS1003;56333;51.306;17.056;2023-02-03T08:19:45;7.20;4.50;
69224;PMS1003;56333;51.306;17.056;2023-02-03T08:21:15;7.50;5.20;
69224;PMS1003;56333;51.306;17.056;2023-02-03T08:22:47;7.80;5.00;
69224;PMS1003;56333;51.306;17.056;2023-02-03T08:24:17;9.30;6.00;
69224;PMS1003;56333;51.306;17.056;2023-02-03T08:25:51;9.60;6.50;
69224;PMS1003;56333;51.306;17.056;2023-02-03T08:27:21;9.20;6.60;
69224;PMS1003;56333;51.306;17.056;2023-02-03T08:28:52;11.50;6.80;
69224;PMS1003;56333;51.306;17.056;2023-02-03T08:30:22;11.10;7.40;
69224;PMS1003;56333;51.306;17.056;2023-02-03T08:31:53;10.70;6.80;
69224;PMS1003;56333;51.306;17.056;2023-02-03T08:33:24;11.40;7.20;
69224;PMS1003;56333;51.306;17.056;2023-02-03T08:34:55;11.70;7.20;
69224;PMS1003;56333;51.306;17.056;2023-02-03T08:36:25;10.90;7.20;
69224;PMS1003;56333;51.306;17.056;2023-02-03T08:37:55;11.00;6.90;
69224;PMS1003;56333;51.306;17.056;2023-02-03T08:39:25;10.30;6.80;
69224;PMS1003;56333;51.306;17.056;2023-02-03T08:40:54;10.60;7.00;
69224;PMS1003;56333;51.306;17.056;2023-02-03T08:42:24;12.10;8.30;
69224;PMS1003;56333;51.306;17.056;2023-02-03T08:43:53;13.10;8.00;
69224;PMS1003;56333;51.306;17.056;2023-02-03T08:45:23;11.70;7.70;
69224;PMS1003;56333;51.306;17.056;2023-02-03T08:46:53;9.80;7.10;
69224;PMS1003;56333;51.306;17.056;2023-02-03T08:48:23;9.00;6.10;
69224;PMS1003;56333;51.306;17.056;2023-02-03T08:49:53;7.90;5.10;
69224;PMS1003;56333;51.306;17.056;2023-02-03T08:51:23;7.10;4.80;
69224;PMS1003;56333;51.306;17.056;2023-02-03T08:52:53;8.10;5.20;
69224;PMS1003;56333;51.306;17.056;2023-02-03T08:54:23;7.50;4.70;
69224;PMS1003;56333;51.306;17.056;2023-02-03T08:55:54;8.10;4.90;
69224;PMS1003;56333;51.306;17.056;2023-02-03T08:57:25;9.50;5.90;
69224;PMS1003;56333;51.306;17.056;2023-02-03T08:58:55;9.60;5.80;
69224;PMS1003;56333;51.306;17.056;2023-02-03T09:00:25;10.20;5.70;
69224;PMS1003;56333;51.306;17.056;2023-02-03T09:01:56;11.60;6.70;
69224;PMS1003;56333;51.306;17.056;2023-02-03T09:03:25;10.60;6.30;
69224;PMS1003;56333;51.306;17.056;2023-02-03T09:04:55;11.80;7.60;
69224;PMS1003;56333;51.306;17.056;2023-02-03T09:06:24;13.40;7.90;
69224;PMS1003;56333;51.306;17.056;2023-02-03T09:07:55;13.20;8.00;
69224;PMS1003;56333;51.306;17.056;2023-02-03T09:09:25;12.00;7.50;
69224;PMS1003;56333;51.306;17.056;2023-02-03T09:10:55;11.40;6.80;
69224;PMS1003;56333;51.306;17.056;2023-02-03T09:12:24;11.50;6.80;
69224;PMS1003;56333;51.306;17.056;2023-02-03T09:13:55;11.30;6.90;
69224;PMS1003;56333;51.306;17.056;2023-02-03T09:15:27;12.70;7.70;
69224;PMS1003;56333;51.306;17.056;2023-02-03T09:16:57;13.60;7.70;
69224;PMS1003;56333;51.306;17.056;2023-02-03T09:18:27;11.30;7.00;